首页
METAR-TAF:

METAR-TAF

机场 :

里奇兰, 华盛顿, 美国

纬度: 46-18-20N, 经度: 119-18-15W, 海拔: 120米

当前天气观测

该预报发布于28分钟前的23:55 UTC
风速4节,风向
温度 13°C
湿度 54%
气压 1025 hPa
能見度: 16.1公里
天空无云

METAR: KRLD 182355Z AUTO 09004KT 10SM CLR 13/04 A3027 RMK AO2 T01250037 10136 20052

时间: 17:23 (00:23 UTC)


TAF: 丢失

超过4000个机场的气象观测和天气预报(METAR&TAF报告)。

可查询的气象台以黄色和红色小点在地图上表示。

将鼠标移到小点上方,可查看气象台名称。

然后点击查看天气观测和预报。

如需切换地图:点击带黑十字的绿色按钮放大地图;点击带横线的绿色按钮缩小地图;或者点击绿色箭头查看邻近地区的地图。


METAR-TAF: